Time;durP1;ratioP1;P1;durP2;ratioP2;P2;SDS_P1;SDS_P2;PMS_P1;PMS_P2;Temp;Humidity;BMP_temperature;BMP_pressure;BME280_temperature;BME280_humidity;BME280_pressure;Samples;Min_cycle;Max_cycle;Signal;HPM_P1;HPM_P2
2022/01/08 00:02:12;;;;;;;1.60;1.50;;;-14.60;99.90;;;;;;4955469;28;20038;-65
2022/01/08 00:04:38;;;;;;;1.98;1.60;;;-14.60;99.90;;;;;;4955359;28;20027;-65
2022/01/08 00:07:03;;;;;;;1.67;1.58;;;-14.70;99.90;;;;;;4955238;28;20368;-65
2022/01/08 00:09:29;;;;;;;2.90;1.60;;;-14.70;99.90;;;;;;4954977;28;20467;-65
2022/01/08 00:11:55;;;;;;;1.40;1.40;;;-14.70;99.90;;;;;;4955225;28;20028;-65
2022/01/08 00:14:22;;;;;;;1.45;1.35;;;-14.70;99.90;;;;;;4954839;28;20098;-65
2022/01/08 00:16:48;;;;;;;1.35;1.33;;;-14.80;99.90;;;;;;4954765;28;20031;-65
2022/01/08 00:19:14;;;;;;;1.30;1.30;;;-14.80;99.90;;;;;;4954530;28;20027;-65
2022/01/08 00:21:40;;;;;;;2.08;1.42;;;-14.90;99.90;;;;;;4953365;28;20112;-65
2022/01/08 00:24:06;;;;;;;1.55;1.45;;;-14.90;99.90;;;;;;4954784;28;20027;-65
2022/01/08 00:26:32;;;;;;;1.55;1.45;;;-14.90;99.90;;;;;;4954466;28;20461;-65
2022/01/08 00:28:59;;;;;;;2.30;1.67;;;-14.90;99.90;;;;;;4954996;28;20609;-65
2022/01/08 00:31:25;;;;;;;1.60;1.50;;;-14.90;99.90;;;;;;4954527;28;20443;-65
2022/01/08 00:33:52;;;;;;;1.40;1.30;;;-14.90;99.90;;;;;;4954563;28;20081;-65
2022/01/08 00:36:18;;;;;;;1.60;1.40;;;-14.90;99.90;;;;;;4954363;28;20027;-66
2022/01/08 00:38:44;;;;;;;2.35;1.33;;;-15.00;99.90;;;;;;4954421;28;20043;-66
2022/01/08 00:41:10;;;;;;;1.35;1.35;;;-15.00;99.90;;;;;;4954633;28;20607;-66
2022/01/08 00:43:36;;;;;;;2.10;1.52;;;-15.00;99.90;;;;;;4954513;28;20055;-66
2022/01/08 00:46:02;;;;;;;1.67;1.58;;;-15.00;99.90;;;;;;4954354;28;20491;-65
2022/01/08 00:48:28;;;;;;;1.60;1.50;;;-14.90;99.90;;;;;;4954077;28;20027;-65
2022/01/08 00:50:54;;;;;;;2.72;1.92;;;-14.90;99.90;;;;;;4954368;28;20038;-65
2022/01/08 00:53:20;;;;;;;1.90;1.70;;;-14.80;99.90;;;;;;4954307;28;20110;-65
2022/01/08 00:55:46;;;;;;;2.55;1.45;;;-14.80;99.90;;;;;;4954246;28;20028;-65
2022/01/08 00:58:12;;;;;;;4.55;1.63;;;-14.90;99.90;;;;;;4954398;28;20028;-65
2022/01/08 01:00:38;;;;;;;1.70;1.60;;;-14.90;99.90;;;;;;4954003;28;20499;-65
2022/01/08 01:03:04;;;;;;;1.63;1.50;;;-14.90;99.90;;;;;;4954330;28;20039;-65
2022/01/08 01:05:30;;;;;;;1.85;1.58;;;-14.90;99.90;;;;;;4953942;28;20035;-65
2022/01/08 01:07:56;;;;;;;1.67;1.58;;;-14.90;99.90;;;;;;4953994;28;20545;-65
2022/01/08 01:10:22;;;;;;;1.98;1.75;;;-14.90;99.90;;;;;;4953961;28;20058;-65
2022/01/08 01:12:47;;;;;;;1.30;1.30;;;-15.00;99.90;;;;;;4954134;28;20028;-64
2022/01/08 01:15:15;;;;;;;1.73;1.63;;;-15.00;99.90;;;;;;4953942;28;20023;-65
2022/01/08 01:17:42;;;;;;;1.50;1.40;;;-15.10;99.90;;;;;;4953766;28;20122;-65
2022/01/08 01:20:10;;;;;;;1.55;1.50;;;-15.20;99.90;;;;;;4953960;28;20023;-64
2022/01/08 01:22:53;;;;;;;1.70;1.60;;;-15.20;99.90;;;;;;4954014;28;20068;-65
2022/01/08 01:25:26;;;;;;;1.70;1.60;;;-15.20;99.90;;;;;;4953801;28;20031;-64
2022/01/08 01:47:01;;;;;;;1.45;1.38;;;-15.30;99.90;;;;;;4957627;28;20082;-65
2022/01/08 01:49:34;;;;;;;2.35;1.60;;;-15.40;99.90;;;;;;4957498;28;20151;-65
2022/01/08 01:52:01;;;;;;;1.30;1.30;;;-15.40;99.90;;;;;;4956619;29;20180;-65
2022/01/08 01:54:27;;;;;;;1.40;1.30;;;-15.40;99.90;;;;;;4957638;28;20030;-65
2022/01/08 01:56:55;;;;;;;1.90;1.65;;;-15.40;99.90;;;;;;4957341;28;20483;-65
2022/01/08 01:59:20;;;;;;;1.65;1.55;;;-15.40;99.90;;;;;;4957719;28;20059;-67
2022/01/08 02:01:46;;;;;;;1.63;1.50;;;-15.40;99.90;;;;;;4956068;28;20431;-68
2022/01/08 02:04:14;;;;;;;2.83;1.70;;;-15.40;99.90;;;;;;4957603;28;20482;-68
2022/01/08 02:06:40;;;;;;;2.10;1.70;;;-15.40;99.90;;;;;;4956984;28;20058;-69
2022/01/08 02:09:06;;;;;;;1.30;1.30;;;-15.40;99.90;;;;;;4957220;28;20435;-70
2022/01/08 02:11:31;;;;;;;2.90;1.45;;;-15.40;99.90;;;;;;4957022;29;20035;-70
2022/01/08 02:14:04;;;;;;;2.45;1.48;;;-15.40;99.90;;;;;;4957044;28;20023;-70
2022/01/08 02:16:31;;;;;;;2.17;1.60;;;-15.40;99.90;;;;;;4957215;28;20486;-70
2022/01/08 02:18:57;;;;;;;1.77;1.40;;;-15.40;99.90;;;;;;4957257;28;20031;-70
2022/01/08 02:21:22;;;;;;;1.60;1.50;;;-15.50;99.90;;;;;;4957171;28;20062;-70
2022/01/08 02:23:48;;;;;;;1.55;1.45;;;-15.50;99.90;;;;;;4957214;28;20035;-70
2022/01/08 02:55:22;;;;;;;1.40;1.30;;;-15.60;99.90;;;;;;4955764;28;20048;-69
2022/01/08 02:57:48;;;;;;;2.45;1.73;;;-15.60;99.90;;;;;;4956297;28;20019;-70
2022/01/08 03:00:17;;;;;;;1.65;1.40;;;-15.60;99.90;;;;;;4956252;28;20499;-70
2022/01/08 03:02:49;;;;;;;1.80;1.70;;;-15.60;99.90;;;;;;4956617;28;20442;-70
2022/01/08 03:37:34;;;;;;;1.60;1.50;;;-15.80;99.90;;;;;;5534439;23;20047;-73
2022/01/08 03:40:00;;;;;;;1.60;1.55;;;-15.90;99.90;;;;;;4936566;29;20051;-72
2022/01/08 03:42:26;;;;;;;1.27;1.27;;;-16.10;99.90;;;;;;4936320;29;20066;-70
2022/01/08 03:44:51;;;;;;;3.22;1.45;;;-16.20;99.90;;;;;;4936403;29;20136;-71
2022/01/08 03:49:53;;;;;;;1.55;1.45;;;-16.20;99.90;;;;;;4936613;29;20024;-72
2022/01/08 03:52:19;;;;;;;1.65;1.60;;;-16.20;99.90;;;;;;4935539;29;20036;-72
2022/01/08 03:54:44;;;;;;;1.50;1.40;;;-16.20;99.90;;;;;;4936166;29;20028;-72
2022/01/08 03:57:10;;;;;;;1.35;1.30;;;-16.20;99.90;;;;;;4936093;29;20035;-72
2022/01/08 03:59:36;;;;;;;1.40;1.40;;;-16.20;99.90;;;;;;4936205;29;20020;-73
2022/01/08 04:02:02;;;;;;;2.10;1.48;;;-16.20;99.90;;;;;;4936050;29;20027;-73
2022/01/08 04:04:28;;;;;;;3.10;1.50;;;-16.20;99.90;;;;;;4935859;29;20035;-73
2022/01/08 04:06:54;;;;;;;3.90;1.60;;;-16.20;99.90;;;;;;4935978;29;20039;-73
2022/01/08 04:09:19;;;;;;;1.45;1.35;;;-16.20;99.90;;;;;;4935763;29;20024;-72
2022/01/08 04:11:45;;;;;;;1.88;1.73;;;-16.20;99.90;;;;;;4936088;29;20118;-72
2022/01/08 04:14:13;;;;;;;1.67;1.42;;;-16.20;99.90;;;;;;4935958;29;20387;-71
2022/01/08 04:16:40;;;;;;;1.50;1.45;;;-16.20;99.90;;;;;;4935836;29;20059;-71
2022/01/08 04:19:06;;;;;;;3.83;1.70;;;-16.10;99.90;;;;;;4935600;29;20028;-71
2022/01/08 04:24:02;;;;;;;1.63;1.52;;;-16.20;99.90;;;;;;4935847;29;20661;-72
2022/01/08 04:26:27;;;;;;;1.70;1.60;;;-16.20;99.90;;;;;;4935460;29;20043;-72
2022/01/08 04:28:53;;;;;;;1.98;1.77;;;-16.20;99.90;;;;;;4935542;29;20028;-71
2022/01/08 04:31:20;;;;;;;1.33;1.33;;;-16.20;99.90;;;;;;4935758;29;20059;-71
2022/01/08 04:33:45;;;;;;;2.13;1.50;;;-16.20;99.90;;;;;;4935542;29;20470;-71
2022/01/08 04:36:11;;;;;;;1.48;1.38;;;-16.20;99.90;;;;;;4935473;29;20107;-70
2022/01/08 04:38:37;;;;;;;1.65;1.55;;;-16.20;99.90;;;;;;4918028;29;20044;-71
2022/01/08 04:41:03;;;;;;;3.63;1.70;;;-16.20;99.90;;;;;;4916625;29;20024;-71
2022/01/08 04:43:29;;;;;;;2.50;1.65;;;-16.20;99.90;;;;;;4916344;29;20020;-71
2022/01/08 04:45:55;;;;;;;1.50;1.50;;;-16.20;99.90;;;;;;4916409;29;20039;-70
2022/01/08 04:48:21;;;;;;;1.33;1.33;;;-16.30;99.90;;;;;;4916136;29;20499;-72
2022/01/08 04:50:46;;;;;;;5.88;1.67;;;-16.30;99.90;;;;;;4916587;29;20028;-71
2022/01/08 04:53:12;;;;;;;1.60;1.50;;;-16.40;99.90;;;;;;4916081;29;20055;-71
2022/01/08 04:55:38;;;;;;;1.52;1.42;;;-16.40;99.90;;;;;;4916440;29;20455;-71
2022/01/08 04:58:05;;;;;;;1.80;1.60;;;-16.30;99.90;;;;;;4916220;29;20395;-71
2022/01/08 05:00:32;;;;;;;1.73;1.63;;;-16.30;99.90;;;;;;4916049;29;20476;-70
2022/01/08 05:03:01;;;;;;;1.55;1.48;;;-16.30;99.90;;;;;;4916063;29;20448;-70
2022/01/08 05:05:27;;;;;;;1.70;1.60;;;-16.40;99.90;;;;;;4915096;29;20040;-70
2022/01/08 05:07:52;;;;;;;2.88;1.70;;;-16.40;99.90;;;;;;4916058;29;20031;-70
2022/01/08 05:10:18;;;;;;;1.63;1.52;;;-16.40;99.90;;;;;;4915908;29;20090;-70
2022/01/08 05:12:44;;;;;;;1.55;1.45;;;-16.40;99.90;;;;;;4915923;29;20038;-70
2022/01/08 05:15:11;;;;;;;1.70;1.60;;;-16.50;99.90;;;;;;4915776;29;20026;-71
2022/01/08 05:17:39;;;;;;;1.60;1.50;;;-16.40;99.90;;;;;;4915912;29;20499;-73
2022/01/08 05:20:10;;;;;;;1.60;1.60;;;-16.40;99.90;;;;;;4915913;29;20483;-71
2022/01/08 05:22:53;;;;;;;1.48;1.48;;;-16.40;99.90;;;;;;4915948;29;20028;-73
2022/01/08 05:25:21;;;;;;;1.60;1.50;;;-16.30;99.90;;;;;;4915727;29;20039;-72
2022/01/08 05:27:48;;;;;;;3.08;1.60;;;-16.30;99.90;;;;;;4915809;29;20024;-71
2022/01/08 05:30:16;;;;;;;1.63;1.52;;;-16.40;99.90;;;;;;4914605;29;20082;-70
2022/01/08 05:32:42;;;;;;;1.50;1.50;;;-16.40;99.90;;;;;;4916027;29;20028;-70
2022/01/08 05:35:08;;;;;;;1.55;1.45;;;-16.30;99.90;;;;;;4915933;29;20036;-69
2022/01/08 05:37:34;;;;;;;1.50;1.40;;;-16.30;99.90;;;;;;4915390;29;20499;-69
2022/01/08 05:40:00;;;;;;;1.67;1.58;;;-16.30;99.90;;;;;;4915807;29;20084;-67
2022/01/08 05:42:26;;;;;;;1.70;1.60;;;-15.60;99.90;;;;;;4915402;29;20056;-69
2022/01/08 05:44:52;;;;;;;1.50;1.40;;;-14.80;99.90;;;;;;4915257;29;20432;-70
2022/01/08 05:47:21;;;;;;;1.30;1.30;;;-15.20;99.90;;;;;;4915284;29;20400;-69
2022/01/08 05:49:46;;;;;;;1.73;1.63;;;-15.60;99.90;;;;;;4913905;29;20021;-69
2022/01/08 05:52:12;;;;;;;6.18;1.90;;;-15.80;99.90;;;;;;4915125;29;20388;-70
2022/01/08 05:54:38;;;;;;;1.63;1.52;;;-16.00;99.90;;;;;;4915159;29;20480;-69
2022/01/08 05:57:04;;;;;;;1.27;1.27;;;-16.00;99.90;;;;;;4915118;29;20102;-68
2022/01/08 05:59:30;;;;;;;1.85;1.75;;;-16.10;99.90;;;;;;4914835;29;20020;-68
2022/01/08 06:01:57;;;;;;;1.38;1.30;;;-16.20;99.90;;;;;;4915163;29;20028;-68
2022/01/08 06:04:23;;;;;;;1.60;1.50;;;-16.20;99.90;;;;;;4915274;29;20024;-69
2022/01/08 06:06:49;;;;;;;1.30;1.30;;;-16.30;99.90;;;;;;4915075;29;20040;-69
2022/01/08 06:09:15;;;;;;;1.70;1.60;;;-16.30;99.90;;;;;;4916069;29;20487;-68
2022/01/08 06:11:41;;;;;;;1.30;1.30;;;-16.30;99.90;;;;;;4914615;29;20447;-68
2022/01/08 06:14:07;;;;;;;1.70;1.60;;;-16.30;99.90;;;;;;4914979;29;20051;-68
2022/01/08 06:16:37;;;;;;;1.48;1.40;;;-16.20;99.90;;;;;;4916386;29;20472;-68
2022/01/08 06:19:09;;;;;;;1.60;1.50;;;-16.20;99.90;;;;;;4918868;29;20035;-68
2022/01/08 06:21:36;;;;;;;1.58;1.45;;;-16.20;99.90;;;;;;4917806;29;20494;-67
2022/01/08 06:24:02;;;;;;;1.92;1.70;;;-16.10;99.90;;;;;;4918802;29;20028;-68
2022/01/08 06:26:28;;;;;;;1.50;1.40;;;-16.20;99.90;;;;;;4918616;29;20031;-68
2022/01/08 06:28:53;;;;;;;1.90;1.45;;;-15.60;99.90;;;;;;4918955;29;20080;-68
2022/01/08 06:31:20;;;;;;;1.73;1.63;;;-15.80;99.90;;;;;;4918882;29;20025;-68
2022/01/08 06:33:47;;;;;;;1.75;1.60;;;-16.00;99.90;;;;;;4918566;29;20024;-68
2022/01/08 06:36:14;;;;;;;1.58;1.50;;;-16.20;99.90;;;;;;4918438;29;20396;-68
2022/01/08 06:38:40;;;;;;;2.47;1.65;;;-15.80;99.90;;;;;;4918228;29;20048;-67
2022/01/08 06:41:06;;;;;;;1.75;1.65;;;-14.30;99.90;;;;;;4918618;29;20039;-66
2022/01/08 06:43:31;;;;;;;1.75;1.60;;;-13.30;99.90;;;;;;4918361;29;20032;-67
2022/01/08 06:45:57;;;;;;;1.70;1.60;;;-14.00;99.90;;;;;;4918382;29;20040;-68
2022/01/08 06:48:23;;;;;;;1.65;1.55;;;-14.80;99.90;;;;;;4918239;29;20052;-68
2022/01/08 06:50:49;;;;;;;1.30;1.30;;;-15.30;99.90;;;;;;4918669;29;20024;-69
2022/01/08 06:53:14;;;;;;;3.15;1.50;;;-15.70;99.90;;;;;;4918185;29;20121;-69
2022/01/08 06:55:40;;;;;;;2.50;1.80;;;-15.90;99.90;;;;;;4917345;29;21276;-69
2022/01/08 06:58:06;;;;;;;3.63;1.83;;;-16.00;99.90;;;;;;4917027;29;20071;-69
2022/01/08 07:00:31;;;;;;;1.70;1.60;;;-16.10;99.90;;;;;;4917695;29;20118;-70
2022/01/08 07:02:59;;;;;;;1.70;1.60;;;-16.20;99.90;;;;;;4918288;29;20035;-69
2022/01/08 07:05:25;;;;;;;1.58;1.50;;;-16.30;99.90;;;;;;4917960;29;20044;-69
2022/01/08 07:07:51;;;;;;;1.77;1.67;;;-16.30;99.90;;;;;;4917942;29;20242;-69
2022/01/08 07:10:16;;;;;;;1.67;1.58;;;-16.50;99.90;;;;;;4917820;29;20567;-69
2022/01/08 07:12:42;;;;;;;1.65;1.55;;;-16.60;99.90;;;;;;4918049;29;20034;-69
2022/01/08 07:15:09;;;;;;;1.70;1.60;;;-16.60;99.90;;;;;;4917850;29;20064;-69
2022/01/08 07:17:34;;;;;;;2.55;1.80;;;-16.60;99.90;;;;;;4917334;29;20028;-69
2022/01/08 07:20:00;;;;;;;3.03;1.90;;;-16.60;99.90;;;;;;4918172;29;20425;-69
2022/01/08 07:22:28;;;;;;;2.10;1.90;;;-16.50;99.90;;;;;;4917505;29;21468;-68
2022/01/08 07:24:53;;;;;;;2.25;2.00;;;-15.90;99.90;;;;;;4917768;29;20471;-70
2022/01/08 07:27:19;;;;;;;10.70;3.20;;;-16.10;99.90;;;;;;4916777;29;20056;-69
2022/01/08 07:29:45;;;;;;;1.80;1.70;;;-16.30;99.90;;;;;;4917746;29;20028;-65
2022/01/08 07:32:11;;;;;;;1.73;1.63;;;-16.50;99.90;;;;;;4918049;29;20032;-67
2022/01/08 07:34:36;;;;;;;2.65;1.58;;;-16.60;99.90;;;;;;4917632;29;20099;-67
2022/01/08 07:37:02;;;;;;;4.05;1.50;;;-16.70;99.90;;;;;;4917427;29;20039;-68
2022/01/08 07:39:28;;;;;;;1.67;1.58;;;-16.70;99.90;;;;;;4917469;29;20028;-67
2022/01/08 07:41:54;;;;;;;1.30;1.30;;;-16.70;99.90;;;;;;4917626;29;20020;-67
2022/01/08 07:44:19;;;;;;;1.52;1.50;;;-16.70;99.90;;;;;;4917410;29;20395;-66
2022/01/08 07:46:45;;;;;;;2.17;1.50;;;-16.70;99.90;;;;;;4917322;29;20547;-66
2022/01/08 07:49:11;;;;;;;2.05;1.80;;;-16.70;99.90;;;;;;4917289;29;20527;-66
2022/01/08 07:51:36;;;;;;;1.90;1.80;;;-16.80;99.90;;;;;;4917432;29;20059;-66
2022/01/08 07:54:02;;;;;;;1.67;1.60;;;-16.80;99.90;;;;;;4917141;29;20532;-66
2022/01/08 07:56:28;;;;;;;1.50;1.50;;;-16.90;99.90;;;;;;4917287;29;20032;-66
2022/01/08 07:58:53;;;;;;;2.00;1.45;;;-16.90;99.90;;;;;;4915894;29;20035;-66
2022/01/08 08:01:21;;;;;;;3.72;1.95;;;-16.90;99.90;;;;;;4917046;29;20052;-67
2022/01/08 08:03:47;;;;;;;3.97;2.42;;;-16.90;99.90;;;;;;4917272;29;20028;-68
2022/01/08 08:06:13;;;;;;;2.55;1.90;;;-16.90;99.90;;;;;;4916921;29;20040;-67
2022/01/08 08:08:39;;;;;;;1.35;1.33;;;-16.90;99.90;;;;;;4916833;29;20103;-67
2022/01/08 08:11:05;;;;;;;1.40;1.40;;;-17.00;99.90;;;;;;4916942;29;20039;-67
2022/01/08 08:13:30;;;;;;;2.58;1.80;;;-17.10;99.90;;;;;;4916769;29;20464;-67
2022/01/08 08:15:56;;;;;;;1.80;1.70;;;-17.10;99.90;;;;;;4916846;29;20361;-68
2022/01/08 08:18:22;;;;;;;3.00;1.50;;;-17.10;99.90;;;;;;4914011;29;20067;-68
2022/01/08 08:20:48;;;;;;;3.80;1.60;;;-17.10;99.90;;;;;;4916118;29;20035;-67
2022/01/08 08:23:13;;;;;;;5.25;2.08;;;-17.10;99.90;;;;;;4916192;29;20039;-67
2022/01/08 08:25:39;;;;;;;1.50;1.42;;;-17.10;99.90;;;;;;4916000;29;20060;-67
2022/01/08 08:28:06;;;;;;;1.70;1.60;;;-17.10;99.90;;;;;;4916063;29;20016;-67
2022/01/08 08:30:35;;;;;;;1.90;1.80;;;-17.20;99.90;;;;;;4915605;29;20415;-68
2022/01/08 08:33:02;;;;;;;1.73;1.60;;;-17.20;99.90;;;;;;4916457;29;20484;-67
2022/01/08 08:35:28;;;;;;;2.00;1.90;;;-17.30;99.90;;;;;;4916293;29;20034;-68
2022/01/08 08:37:54;;;;;;;1.60;1.50;;;-17.20;99.90;;;;;;4916232;29;20052;-67
2022/01/08 08:40:19;;;;;;;3.53;1.92;;;-17.20;99.90;;;;;;4916365;29;20498;-68
2022/01/08 08:42:45;;;;;;;1.80;1.70;;;-17.10;99.90;;;;;;4916391;29;20496;-67
2022/01/08 08:45:12;;;;;;;1.90;1.65;;;-17.20;99.90;;;;;;4916542;29;20036;-67
2022/01/08 08:47:39;;;;;;;1.77;1.70;;;-17.20;99.90;;;;;;4916172;29;20036;-67
2022/01/08 08:50:10;;;;;;;2.35;1.90;;;-17.30;99.90;;;;;;4914947;29;20038;-67
2022/01/08 08:52:36;;;;;;;2.00;1.80;;;-17.20;99.90;;;;;;4916245;29;20091;-66
2022/01/08 08:55:03;;;;;;;2.47;1.65;;;-17.20;99.90;;;;;;4916218;29;20476;-67
2022/01/08 08:57:28;;;;;;;4.45;1.75;;;-17.30;99.90;;;;;;4916005;29;20032;-67
2022/01/08 08:59:55;;;;;;;1.70;1.60;;;-17.30;99.80;;;;;;4916192;29;20080;-67
2022/01/08 09:02:21;;;;;;;2.42;1.98;;;-17.20;99.90;;;;;;4914535;29;20031;-68
2022/01/08 09:04:48;;;;;;;6.15;2.50;;;-17.20;99.90;;;;;;4915909;29;20028;-67
2022/01/08 09:07:14;;;;;;;2.25;2.05;;;-17.30;99.40;;;;;;4915920;29;20392;-67
2022/01/08 09:09:39;;;;;;;2.88;2.58;;;-17.30;99.60;;;;;;4915757;29;20024;-67
2022/01/08 09:12:06;;;;;;;6.00;2.50;;;-17.30;99.50;;;;;;4915963;29;20484;-64
2022/01/08 09:14:32;;;;;;;2.60;2.40;;;-17.20;99.90;;;;;;4915759;29;20024;-69
2022/01/08 09:17:02;;;;;;;1.88;1.77;;;-17.20;99.70;;;;;;4916238;29;20032;-69
2022/01/08 09:19:29;;;;;;;1.80;1.70;;;-17.30;99.40;;;;;;4915856;29;20037;-70
2022/01/08 09:21:54;;;;;;;2.90;1.77;;;-17.40;99.50;;;;;;4916211;29;20424;-67
2022/01/08 09:24:21;;;;;;;2.15;1.95;;;-16.80;99.90;;;;;;4915924;29;20076;-67
2022/01/08 09:26:47;;;;;;;2.10;2.00;;;-16.50;99.90;;;;;;4915789;29;20484;-67
2022/01/08 09:29:14;;;;;;;2.80;2.08;;;-16.80;99.90;;;;;;4915732;29;20038;-64
2022/01/08 09:31:39;;;;;;;1.73;1.63;;;-16.90;99.90;;;;;;4915934;29;20439;-64
2022/01/08 09:34:06;;;;;;;5.50;2.78;;;-16.20;99.90;;;;;;4915835;29;20488;-65
2022/01/08 09:36:33;;;;;;;4.60;2.65;;;-16.10;99.90;;;;;;4915487;29;20432;-65
2022/01/08 09:38:59;;;;;;;4.63;2.35;;;-16.40;99.90;;;;;;4915904;29;20032;-64
2022/01/08 09:41:25;;;;;;;2.45;2.10;;;-16.60;99.90;;;;;;4915849;29;20499;-64
2022/01/08 09:43:51;;;;;;;2.17;2.00;;;-16.80;99.90;;;;;;4915050;29;20099;-66
2022/01/08 09:46:21;;;;;;;3.53;1.90;;;-16.90;99.90;;;;;;4915150;29;20647;-67
2022/01/08 09:48:47;;;;;;;2.38;2.17;;;-17.10;99.90;;;;;;4915391;29;20032;-67
2022/01/08 09:51:14;;;;;;;1.92;1.83;;;-17.20;99.90;;;;;;4916254;29;20064;-67
2022/01/08 09:53:39;;;;;;;2.00;1.90;;;-17.20;99.90;;;;;;4919032;29;20034;-67
2022/01/08 09:56:05;;;;;;;4.22;1.90;;;-17.30;99.90;;;;;;4919489;29;20032;-67
2022/01/08 09:58:31;;;;;;;1.90;1.80;;;-17.30;99.90;;;;;;4918776;29;20028;-66
2022/01/08 10:00:57;;;;;;;2.65;2.38;;;-17.30;99.90;;;;;;4921733;29;20035;-65
2022/01/08 10:03:26;;;;;;;2.80;2.47;;;-17.30;99.90;;;;;;4917318;29;20020;-65
2022/01/08 10:05:54;;;;;;;3.80;3.38;;;-17.20;99.90;;;;;;4918693;29;20039;-66
2022/01/08 10:08:25;;;;;;;3.92;3.03;;;-17.20;99.90;;;;;;4918523;29;20028;-66
2022/01/08 10:11:18;;;;;;;5.03;3.03;;;-17.20;99.90;;;;;;4918738;29;20043;-66
2022/01/08 10:13:47;;;;;;;4.97;2.50;;;-17.20;99.90;;;;;;4915270;29;20128;-66
2022/01/08 10:19:16;;;;;;;3.22;2.22;;;-17.30;99.90;;;;;;4919160;29;20084;-66
2022/01/08 10:21:43;;;;;;;5.18;3.03;;;-17.20;99.90;;;;;;4918853;29;20038;-66
2022/01/08 10:24:10;;;;;;;9.75;3.60;;;-17.20;99.90;;;;;;4918762;29;20492;-66
2022/01/08 10:26:38;;;;;;;10.88;4.90;;;-17.10;99.90;;;;;;4918303;29;20040;-66
2022/01/08 10:29:10;;;;;;;5.45;2.40;;;-17.20;99.90;;;;;;4918966;29;20072;-66
2022/01/08 10:31:41;;;;;;;2.28;2.10;;;-17.30;99.90;;;;;;4918661;29;20035;-67
2022/01/08 10:34:29;;;;;;;2.53;2.20;;;-17.40;99.90;;;;;;4919017;29;20043;-66
2022/01/08 10:36:55;;;;;;;5.60;2.72;;;-17.50;99.90;;;;;;4918277;29;20377;-65
2022/01/08 10:39:28;;;;;;;3.50;2.63;;;-17.40;99.90;;;;;;4918566;29;20083;-66
2022/01/08 10:41:56;;;;;;;2.42;2.22;;;-17.30;99.90;;;;;;4917466;29;20522;-66
2022/01/08 10:44:28;;;;;;;3.50;2.38;;;-17.40;99.90;;;;;;4918358;29;20047;-66
2022/01/08 10:46:58;;;;;;;2.97;1.90;;;-17.30;99.90;;;;;;4918398;29;20040;-65
2022/01/08 10:49:38;;;;;;;2.17;1.60;;;-17.40;99.90;;;;;;4918252;29;20502;-67
2022/01/08 10:52:06;;;;;;;3.33;2.40;;;-17.40;99.90;;;;;;4918438;29;20031;-67
2022/01/08 10:54:34;;;;;;;4.05;2.38;;;-17.40;99.90;;;;;;4918156;29;20036;-66
2022/01/08 10:57:02;;;;;;;6.03;2.97;;;-17.40;99.90;;;;;;4918437;29;20123;-66
2022/01/08 10:59:30;;;;;;;2.45;2.10;;;-17.40;99.90;;;;;;4918020;29;20031;-66
2022/01/08 11:02:04;;;;;;;4.55;2.38;;;-17.40;99.90;;;;;;4918111;29;20032;-66
2022/01/08 11:04:35;;;;;;;7.43;2.88;;;-17.30;99.90;;;;;;4916616;29;20028;-67
2022/01/08 11:07:06;;;;;;;3.92;2.65;;;-17.30;99.90;;;;;;4918030;29;20444;-66
2022/01/08 11:09:34;;;;;;;5.13;2.60;;;-17.30;99.90;;;;;;4917830;29;20032;-67
2022/01/08 11:12:02;;;;;;;3.55;2.20;;;-17.30;99.90;;;;;;4917999;29;20436;-66
2022/01/08 11:17:21;;;;;;;1.88;1.77;;;-17.30;99.90;;;;;;4917919;29;20060;-69
2022/01/08 11:19:53;;;;;;;3.15;2.13;;;-17.30;99.90;;;;;;4917823;29;20079;-69
2022/01/08 11:22:21;;;;;;;1.88;1.77;;;-17.40;99.80;;;;;;4918146;29;20107;-68
2022/01/08 11:24:57;;;;;;;2.67;2.40;;;-17.40;99.50;;;;;;4917966;29;20437;-67
2022/01/08 11:27:33;;;;;;;1.95;1.85;;;-17.40;99.70;;;;;;4917642;29;20042;-66
2022/01/08 11:30:08;;;;;;;2.50;2.30;;;-16.80;99.90;;;;;;4917964;29;20040;-67
2022/01/08 11:32:35;;;;;;;2.35;2.15;;;-16.70;99.90;;;;;;4917748;29;20031;-67
2022/01/08 11:35:04;;;;;;;2.83;2.00;;;-16.90;99.90;;;;;;4917621;29;20032;-66
2022/01/08 11:37:31;;;;;;;1.60;1.50;;;-16.90;99.90;;;;;;4917098;29;20123;-67
2022/01/08 11:40:05;;;;;;;4.30;2.17;;;-17.10;99.90;;;;;;4917560;29;20036;-67
2022/01/08 11:42:38;;;;;;;3.50;2.38;;;-17.10;99.90;;;;;;4917301;29;20027;-67
2022/01/08 11:45:06;;;;;;;11.30;4.28;;;-17.10;99.90;;;;;;4917458;29;20500;-67
2022/01/08 11:47:32;;;;;;;5.15;3.03;;;-17.00;99.90;;;;;;4917406;29;20157;-67
2022/01/08 11:50:01;;;;;;;10.25;3.55;;;-16.50;99.90;;;;;;4917443;29;20025;-67
2022/01/08 11:52:27;;;;;;;8.38;4.32;;;-16.30;99.90;;;;;;4917369;29;20031;-68
2022/01/08 11:54:53;;;;;;;9.60;3.05;;;-16.50;99.90;;;;;;4917293;29;20551;-67
2022/01/08 11:57:23;;;;;;;5.45;2.50;;;-16.60;99.90;;;;;;4917370;29;20120;-66
2022/01/08 11:59:56;;;;;;;2.00;1.80;;;-16.80;99.90;;;;;;4917325;29;20036;-67
2022/01/08 12:02:38;;;;;;;1.98;1.88;;;-16.90;99.90;;;;;;4915747;29;20036;-67
2022/01/08 12:05:05;;;;;;;1.80;1.70;;;-16.90;99.90;;;;;;4915058;29;20055;-66
2022/01/08 12:07:38;;;;;;;2.22;1.50;;;-17.00;99.90;;;;;;4916810;29;20043;-68
2022/01/08 12:10:15;;;;;;;1.88;1.77;;;-15.20;99.90;;;;;;4917169;29;20044;-68
2022/01/08 12:12:49;;;;;;;2.08;1.75;;;-13.80;99.90;;;;;;4916875;29;20059;-67
2022/01/08 12:15:17;;;;;;;1.30;1.30;;;-14.60;99.90;;;;;;4916339;29;20458;-67
2022/01/08 12:17:56;;;;;;;6.00;2.53;;;-10.70;99.90;;;;;;4916905;29;20031;-66
2022/01/08 12:20:38;;;;;;;2.40;2.20;;;-8.90;99.90;;;;;;4916769;29;20116;-66
2022/01/08 12:23:36;;;;;;;2.83;2.08;;;-11.20;99.90;;;;;;4916698;29;20504;-67
2022/01/08 12:26:28;;;;;;;3.38;2.47;;;-12.80;99.90;;;;;;4916505;29;20473;-64
2022/01/08 12:28:59;;;;;;;3.88;2.35;;;-13.90;99.90;;;;;;4916408;29;20020;-66
2022/01/08 12:31:37;;;;;;;1.80;1.70;;;-14.40;99.90;;;;;;4916530;29;20043;-65
2022/01/08 12:34:31;;;;;;;1.60;1.50;;;-14.90;99.90;;;;;;4916451;29;20032;-65
2022/01/08 12:37:13;;;;;;;2.08;1.88;;;-15.30;99.90;;;;;;4915864;29;20051;-65
2022/01/08 12:39:46;;;;;;;3.03;2.60;;;-15.50;99.90;;;;;;4916376;29;20064;-65
2022/01/08 12:42:27;;;;;;;5.00;2.10;;;-15.50;99.90;;;;;;4915950;29;20024;-65
2022/01/08 12:45:02;;;;;;;1.80;1.70;;;-15.60;99.90;;;;;;4913764;29;20059;-65
2022/01/08 12:47:36;;;;;;;2.33;1.60;;;-15.70;99.90;;;;;;4915513;29;20039;-66
2022/01/08 12:50:21;;;;;;;2.05;1.85;;;-16.00;99.90;;;;;;4915200;29;20492;-66
2022/01/08 12:53:21;;;;;;;2.30;2.03;;;-16.10;99.90;;;;;;4913192;29;20514;-65
2022/01/08 12:55:56;;;;;;;2.42;2.00;;;-16.10;99.90;;;;;;4914873;29;20039;-65
2022/01/08 12:58:26;;;;;;;2.97;2.08;;;-16.10;99.90;;;;;;4915038;29;20035;-65
2022/01/08 13:01:03;;;;;;;1.33;1.33;;;-16.00;99.90;;;;;;4915842;29;20511;-65
2022/01/08 13:03:53;;;;;;;1.73;1.63;;;-14.40;99.90;;;;;;4916110;29;20046;-67
2022/01/08 13:06:22;;;;;;;1.80;1.70;;;-12.30;99.90;;;;;;4915689;29;20452;-66
2022/01/08 13:08:50;;;;;;;2.10;1.90;;;-13.00;99.90;;;;;;4916195;29;20091;-67
2022/01/08 13:11:23;;;;;;;3.08;1.90;;;-13.70;99.90;;;;;;4917714;29;20042;-67
2022/01/08 13:13:55;;;;;;;2.40;2.03;;;-14.30;99.90;;;;;;4916191;29;20032;-67
2022/01/08 13:16:41;;;;;;;3.15;1.90;;;-14.50;99.90;;;;;;4916263;29;20062;-66
2022/01/08 13:19:19;;;;;;;3.22;2.00;;;-14.50;99.90;;;;;;4916199;29;20028;-67
2022/01/08 13:21:51;;;;;;;4.63;2.30;;;-14.50;99.90;;;;;;4915912;29;20059;-67
2022/01/08 13:24:30;;;;;;;1.70;1.60;;;-14.60;99.90;;;;;;4915941;29;20437;-67
2022/01/08 13:27:02;;;;;;;2.03;1.88;;;-14.70;99.90;;;;;;4915182;29;20448;-67
2022/01/08 13:29:44;;;;;;;2.40;1.77;;;-14.70;99.90;;;;;;4915670;29;20016;-67
2022/01/08 13:32:10;;;;;;;3.08;1.70;;;-14.70;99.90;;;;;;4915754;29;20504;-68
2022/01/08 13:34:40;;;;;;;2.03;1.90;;;-14.80;99.90;;;;;;4917442;29;20059;-68
2022/01/08 13:37:26;;;;;;;2.75;2.15;;;-14.70;99.90;;;;;;4915611;29;20107;-66
2022/01/08 13:40:02;;;;;;;3.22;2.17;;;-14.70;99.90;;;;;;4915521;29;20416;-66
2022/01/08 13:42:31;;;;;;;3.83;2.17;;;-14.60;99.90;;;;;;4915507;29;20424;-66
2022/01/08 13:45:08;;;;;;;5.80;2.20;;;-14.60;99.90;;;;;;4915395;29;20024;-66
2022/01/08 13:47:39;;;;;;;1.75;1.65;;;-14.70;99.90;;;;;;4915280;29;20037;-66
2022/01/08 13:50:11;;;;;;;;;;;-14.60;99.90;;;;;;4915978;29;20025;-66
2022/01/08 13:52:45;;;;;;;2.33;2.13;;;-14.60;99.90;;;;;;4915416;29;19907;-66
2022/01/08 13:55:15;;;;;;;9.20;3.30;;;-14.50;99.90;;;;;;4915773;29;20032;-66
2022/01/08 13:57:43;;;;;;;11.13;4.72;;;-14.50;99.90;;;;;;4915432;29;20472;-66
2022/01/08 14:00:22;;;;;;;4.32;2.50;;;-14.40;99.90;;;;;;4915388;29;20400;-66
2022/01/08 14:02:50;;;;;;;3.28;2.58;;;-14.40;99.90;;;;;;4915014;29;20021;-66
2022/01/08 14:05:16;;;;;;;2.53;2.10;;;-14.50;99.90;;;;;;4915043;29;20552;-65
2022/01/08 14:07:42;;;;;;;1.88;1.77;;;-14.40;99.90;;;;;;4914606;29;20044;-66
2022/01/08 14:10:09;;;;;;;2.08;1.88;;;-14.40;99.90;;;;;;4914847;29;20476;-66
2022/01/08 14:12:35;;;;;;;2.65;1.98;;;-14.30;99.90;;;;;;4915031;29;20032;-66
2022/01/08 14:15:06;;;;;;;2.35;2.15;;;-14.30;99.90;;;;;;4915317;29;20078;-66
2022/01/08 14:17:34;;;;;;;;;;;-14.20;99.90;;;;;;4916065;29;20032;-66